createdAt,value
2023-03-30T14:00:23.007Z,62.79
2023-03-30T14:02:53.953Z,65.70
2023-03-30T14:05:28.493Z,65.30
2023-03-30T14:08:00.653Z,64.15
2023-03-30T14:10:35.799Z,63.91
2023-03-30T14:13:08.884Z,64.12
2023-03-30T14:15:40.238Z,63.89
2023-03-30T14:18:24.209Z,64.01
2023-03-30T14:21:14.967Z,61.95
2023-03-30T14:23:55.428Z,64.58
2023-03-30T14:26:30.138Z,64.76
2023-03-30T14:29:21.308Z,64.82
2023-03-30T14:32:09.400Z,65.33
2023-03-30T14:34:41.398Z,65.43
2023-03-30T14:37:15.307Z,64.82
2023-03-30T14:39:52.768Z,63.60
2023-03-30T14:42:28.155Z,65.76
2023-03-30T14:44:59.574Z,64.06
2023-03-30T14:47:31.231Z,65.60
2023-03-30T14:50:07.681Z,65.23
2023-03-30T14:52:44.824Z,66.29
2023-03-30T14:55:24.527Z,66.77
2023-03-30T14:57:58.481Z,67.34
2023-03-30T15:00:31.182Z,67.13
2023-03-30T15:03:04.435Z,67.25
2023-03-30T15:05:43.186Z,67.27
2023-03-30T15:08:26.517Z,66.63
2023-03-30T15:11:08.734Z,66.51
2023-03-30T15:13:43.450Z,67.43
2023-03-30T15:16:22.171Z,68.32
2023-03-30T15:18:55.054Z,66.66
2023-03-30T15:21:25.911Z,66.99
2023-03-30T15:23:56.226Z,66.99
2023-03-30T15:26:29.167Z,68.70
2023-03-30T15:29:00.729Z,68.54
2023-03-30T15:31:31.339Z,68.16
2023-03-30T15:34:02.466Z,67.24
2023-03-30T15:36:41.102Z,68.80
2023-03-30T15:39:27.014Z,67.70
2023-03-30T15:42:05.610Z,68.75
2023-03-30T15:44:42.630Z,68.77
2023-03-30T15:47:18.922Z,68.50
2023-03-30T15:49:52.619Z,68.69
2023-03-30T15:52:34.744Z,68.40
2023-03-30T15:55:12.048Z,68.43
2023-03-30T15:57:50.262Z,68.44
2023-03-30T16:00:27.650Z,69.60
2023-03-30T16:03:01.654Z,70.09
2023-03-30T16:05:35.226Z,69.95
2023-03-30T16:08:06.731Z,70.02
2023-03-30T16:10:40.941Z,70.35
2023-03-30T16:13:13.237Z,69.57
2023-03-30T16:15:43.763Z,68.90
2023-03-30T16:18:14.811Z,68.69
2023-03-30T16:20:45.926Z,68.04
2023-03-30T16:23:16.167Z,69.38
2023-03-30T16:25:47.611Z,69.12
2023-03-30T16:28:20.268Z,69.06
2023-03-30T16:30:54.443Z,69.57
2023-03-30T16:33:27.214Z,69.19
2023-03-30T16:35:58.213Z,70.48
2023-03-30T16:38:29.821Z,68.85
2023-03-30T16:41:02.913Z,69.76
2023-03-30T16:43:34.317Z,71.05
2023-03-30T16:46:04.838Z,70.53
2023-03-30T16:48:35.111Z,70.06
2023-03-30T16:51:08.190Z,69.07
2023-03-30T16:53:38.445Z,69.14
2023-03-30T16:56:16.000Z,68.13
2023-03-30T16:58:47.589Z,67.86
2023-03-30T17:01:20.735Z,68.50
2023-03-30T17:03:52.336Z,68.42
2023-03-30T17:06:23.922Z,68.60
2023-03-30T17:08:57.453Z,68.09
2023-03-30T17:11:28.481Z,68.15
2023-03-30T17:13:58.810Z,68.55
2023-03-30T17:16:30.658Z,67.60
2023-03-30T17:19:00.864Z,68.56
2023-03-30T17:21:32.079Z,68.72
2023-03-30T17:24:02.221Z,68.91
2023-03-30T17:26:33.008Z,68.36
2023-03-30T17:29:03.958Z,67.81
2023-03-30T17:31:35.222Z,68.41
2023-03-30T17:34:05.603Z,68.44
2023-03-30T17:36:35.680Z,68.24
2023-03-30T17:39:07.094Z,68.87
2023-03-30T17:41:40.374Z,69.06
2023-03-30T17:44:11.372Z,70.36
2023-03-30T17:46:44.148Z,70.15
2023-03-30T17:49:20.248Z,69.89
2023-03-30T17:51:51.083Z,70.10
2023-03-30T17:54:21.893Z,70.99
2023-03-30T17:56:53.479Z,70.91
2023-03-30T17:59:23.881Z,70.48
2023-03-30T18:01:55.090Z,71.07
2023-03-30T18:04:26.458Z,71.61
2023-03-30T18:06:58.165Z,71.23
2023-03-30T18:09:28.453Z,71.89
2023-03-30T18:11:59.426Z,72.28
2023-03-30T18:14:30.936Z,72.20
2023-03-30T18:17:06.501Z,72.34
2023-03-30T18:19:38.717Z,71.52
2023-03-30T18:22:09.195Z,71.70
2023-03-30T18:24:40.699Z,71.22
2023-03-30T18:27:12.920Z,71.58
2023-03-30T18:29:44.084Z,72.11
2023-03-30T18:32:14.912Z,72.21
2023-03-30T18:34:45.086Z,71.75
2023-03-30T18:37:15.128Z,72.32
2023-03-30T18:39:47.586Z,72.63
2023-03-30T18:42:18.587Z,72.54
2023-03-30T18:44:48.880Z,72.77
2023-03-30T18:47:18.955Z,72.93
2023-03-30T18:49:49.760Z,73.02
2023-03-30T18:52:21.644Z,72.45
2023-03-30T18:54:53.568Z,73.14
2023-03-30T18:57:25.883Z,72.87
2023-03-30T18:59:59.244Z,72.68
2023-03-30T19:02:30.179Z,71.90
2023-03-30T19:05:00.680Z,71.20
2023-03-30T19:07:30.955Z,70.77
2023-03-30T19:10:02.072Z,71.17
2023-03-30T19:12:33.702Z,71.14
2023-03-30T19:15:05.678Z,72.27
2023-03-30T19:17:35.948Z,72.62
2023-03-30T19:20:08.201Z,72.95
2023-03-30T19:22:40.469Z,73.39
2023-03-30T19:25:13.856Z,73.54
2023-03-30T19:27:55.513Z,73.37
2023-03-30T19:30:35.340Z,73.84
2023-03-30T19:33:10.300Z,72.79
2023-03-30T19:35:44.442Z,72.20
2023-03-30T19:38:16.129Z,71.85
2023-03-30T19:40:46.512Z,71.64
2023-03-30T19:43:18.972Z,71.71
2023-03-30T19:45:53.463Z,71.82
2023-03-30T19:48:24.934Z,72.35
2023-03-30T19:50:56.714Z,71.89
2023-03-30T19:53:27.841Z,71.17
2023-03-30T19:55:58.518Z,71.38
2023-03-30T19:58:28.616Z,71.63
2023-03-30T20:00:58.879Z,71.41
2023-03-30T20:03:32.267Z,71.33
2023-03-30T20:06:04.892Z,70.93
2023-03-30T20:08:35.988Z,70.60
2023-03-30T20:11:11.006Z,71.20
2023-03-30T20:13:46.895Z,70.42
2023-03-30T20:16:25.119Z,71.40
2023-03-30T20:18:58.463Z,70.80
2023-03-30T20:21:29.405Z,71.04
2023-03-30T20:24:01.364Z,71.42
2023-03-30T20:26:32.035Z,70.61
2023-03-30T20:29:03.383Z,70.60
2023-03-30T20:31:33.953Z,70.05
2023-03-30T20:34:05.386Z,70.42
2023-03-30T20:36:36.511Z,71.38
2023-03-30T20:39:09.836Z,72.04
2023-03-30T20:41:40.087Z,72.82
2023-03-30T20:44:15.240Z,73.55
2023-03-30T20:46:45.874Z,73.73
2023-03-30T20:49:17.877Z,74.44
2023-03-30T20:51:53.514Z,74.50
2023-03-30T20:54:23.843Z,74.92
2023-03-30T20:56:53.928Z,74.70
2023-03-30T20:59:26.545Z,75.15
2023-03-30T21:02:01.052Z,75.61
2023-03-30T21:04:32.193Z,75.89
2023-03-30T21:07:04.298Z,75.92
2023-03-30T21:09:36.272Z,76.64
2023-03-30T21:12:06.990Z,76.50
2023-03-30T21:14:37.382Z,77.11
2023-03-30T21:17:08.278Z,77.52
2023-03-30T21:19:45.450Z,77.90
2023-03-30T21:22:17.089Z,78.32
2023-03-30T21:24:48.773Z,78.62
2023-03-30T21:27:23.453Z,79.11
2023-03-30T21:29:54.075Z,79.51
2023-03-30T21:32:52.199Z,79.83
